Time;durP1;ratioP1;P1;durP2;ratioP2;P2;SDS_P1;SDS_P2;PMS_P1;PMS_P2;Temp;Humidity;BMP_temperature;BMP_pressure;BME280_temperature;BME280_humidity;BME280_pressure;Samples;Min_cycle;Max_cycle;Signal;HPM_P1;HPM_P2
2020/12/11 00:01:50;;;;;;;27.27;12.33;;;;;;;0.68;85.05;99995.49;1803144;77;21564;-54
2020/12/11 00:04:18;;;;;;;31.17;13.53;;;;;;;0.69;85.01;99989.31;1805059;77;21202;-53
2020/12/11 00:06:45;;;;;;;32.37;12.37;;;;;;;0.71;84.96;99991.96;1807585;77;21258;-54
2020/12/11 00:09:12;;;;;;;34.83;14.60;;;;;;;0.71;84.97;99991.52;1804473;77;21630;-56
2020/12/11 00:11:39;;;;;;;34.13;14.70;;;;;;;0.71;85.00;99979.59;1803422;77;21202;-54
2020/12/11 00:14:07;;;;;;;37.83;15.57;;;;;;;0.75;85.00;99987.09;1802811;77;21186;-53
2020/12/11 00:16:35;;;;;;;29.57;12.13;;;;;;;0.73;84.99;99991.52;1807174;77;21842;-53
2020/12/11 00:19:03;;;;;;;37.27;15.13;;;;;;;0.70;84.99;99988.42;1807741;77;21206;-53
2020/12/11 00:21:42;;;;;;;35.00;16.67;;;;;;;0.70;84.96;99986.22;1810498;77;21449;-54
2020/12/11 00:24:10;;;;;;;31.93;15.10;;;;;;;0.70;84.94;99996.81;1806017;77;21142;-55
2020/12/11 00:26:38;;;;;;;38.27;14.30;;;;;;;0.71;84.94;99989.31;1800091;77;21154;-54
2020/12/11 00:29:06;;;;;;;38.33;14.27;;;;;;;0.73;84.95;99987.09;1810810;77;21409;-54
2020/12/11 00:31:33;;;;;;;35.17;14.90;;;;;;;0.77;84.97;99991.07;1802909;77;21163;-53
2020/12/11 00:34:00;;;;;;;29.77;14.27;;;;;;;0.81;84.95;99987.50;1801818;77;22577;-56
2020/12/11 00:39:04;;;;;;;36.60;16.83;;;;;;;0.87;84.88;99983.48;1874123;75;27186;-56
2020/12/11 00:41:31;;;;;;;35.97;15.57;;;;;;;0.83;84.76;99982.64;1841602;76;21025;-55
2020/12/11 00:43:58;;;;;;;33.97;15.27;;;;;;;0.82;84.74;99981.31;1841201;76;21848;-56
2020/12/11 00:46:26;;;;;;;35.50;15.07;;;;;;;0.81;84.68;99977.78;1843293;76;21138;-57
2020/12/11 00:48:54;;;;;;;31.57;14.33;;;;;;;0.81;84.68;99978.23;1805217;78;21173;-56
2020/12/11 00:51:21;;;;;;;27.50;12.27;;;;;;;0.82;84.70;99978.66;1781204;78;21699;-55
2020/12/11 00:53:49;;;;;;;29.83;15.03;;;;;;;0.83;84.67;99973.80;1762581;78;21175;-55
2020/12/11 00:56:17;;;;;;;32.10;15.80;;;;;;;0.83;84.67;99977.34;1807669;77;22342;-57
2020/12/11 00:58:45;;;;;;;30.50;14.00;;;;;;;0.81;84.64;99983.52;1807595;77;21203;-57
2020/12/11 01:01:12;;;;;;;34.47;15.30;;;;;;;0.79;84.61;99966.74;1807637;78;21179;-54
2020/12/11 01:03:39;;;;;;;29.73;13.73;;;;;;;0.76;84.58;99968.98;1807395;77;21792;-54
2020/12/11 01:06:08;;;;;;;28.90;13.97;;;;;;;0.76;84.56;99972.97;1805951;78;21191;-54
2020/12/11 01:08:35;;;;;;;27.03;12.93;;;;;;;0.75;84.56;99969.87;1802961;78;23377;-56
2020/12/11 01:11:02;;;;;;;30.30;14.13;;;;;;;0.76;84.58;99972.97;1791591;78;21134;-54
2020/12/11 01:13:29;;;;;;;24.77;12.83;;;;;;;0.78;84.62;99971.16;1781113;78;21589;-55
2020/12/11 01:15:57;;;;;;;33.33;13.43;;;;;;;0.81;84.60;99972.92;1784928;78;21845;-56
2020/12/11 01:18:24;;;;;;;26.77;12.40;;;;;;;0.81;84.54;99973.80;1805524;78;21202;-54
2020/12/11 01:20:51;;;;;;;29.73;14.07;;;;;;;0.79;84.51;99961.00;1769501;79;21217;-55
2020/12/11 01:23:21;;;;;;;25.87;13.30;;;;;;;0.75;84.49;99957.95;1775092;78;21622;-53
2020/12/11 01:25:48;;;;;;;26.87;12.77;;;;;;;0.75;84.48;99958.83;1806419;77;21485;-55
2020/12/11 01:28:15;;;;;;;24.60;11.57;;;;;;;0.74;84.49;99954.42;1777391;79;21124;-56
2020/12/11 01:30:42;;;;;;;27.53;12.23;;;;;;;0.77;84.49;99953.98;1790961;78;21103;-54
2020/12/11 01:33:09;;;;;;;27.00;12.27;;;;;;;0.76;84.51;99947.80;1781396;79;21475;-55
2020/12/11 01:35:36;;;;;;;25.77;13.07;;;;;;;0.77;84.50;99941.58;1785332;78;21142;-56
2020/12/11 01:38:04;;;;;;;25.43;12.70;;;;;;;0.79;84.50;99954.82;1780087;78;22091;-54
2020/12/11 01:40:36;;;;;;;27.90;12.67;;;;;;;0.77;84.46;99956.15;1780785;79;21206;-56
2020/12/11 01:43:03;;;;;;;24.13;12.37;;;;;;;0.75;84.42;99950.00;1784455;79;21203;-56
2020/12/11 01:45:30;;;;;;;19.00;10.43;;;;;;;0.74;84.37;99947.80;1779741;78;22236;-54
2020/12/11 01:47:58;;;;;;;27.20;12.57;;;;;;;0.73;84.43;99947.80;1784753;78;21218;-54
2020/12/11 01:50:25;;;;;;;22.23;11.63;;;;;;;0.77;84.46;99951.33;1785654;78;21178;-56
2020/12/11 01:52:52;;;;;;;30.70;12.53;;;;;;;0.80;84.45;99945.55;1778017;79;21241;-55
2020/12/11 01:55:19;;;;;;;23.70;12.57;;;;;;;0.83;84.42;99943.33;1785058;78;22186;-53
2020/12/11 01:58:01;;;;;;;20.87;12.20;;;;;;;0.83;84.37;99936.70;1781209;78;21384;-56
2020/12/11 02:00:28;;;;;;;22.23;10.47;;;;;;;0.81;84.34;99925.23;1774096;79;21850;-55
2020/12/11 02:03:05;;;;;;;22.27;11.80;;;;;;;0.78;84.32;99942.02;1774343;78;21199;-55
2020/12/11 02:05:32;;;;;;;22.50;10.83;;;;;;;0.76;84.29;99937.20;1806986;77;21179;-56
2020/12/11 02:07:59;;;;;;;23.70;10.63;;;;;;;0.77;84.31;99938.08;1807124;78;21151;-55
2020/12/11 02:10:26;;;;;;;22.23;11.17;;;;;;;0.77;84.33;99927.00;1783900;79;22314;-56
2020/12/11 02:12:53;;;;;;;24.63;10.60;;;;;;;0.80;84.35;99930.97;1778651;79;21203;-54
2020/12/11 02:15:21;;;;;;;24.03;10.77;;;;;;;0.82;84.31;99930.97;1804044;77;21592;-56
2020/12/11 02:17:49;;;;;;;23.27;11.57;;;;;;;0.80;84.28;99931.41;1809032;77;21199;-55
2020/12/11 02:20:17;;;;;;;21.17;11.30;;;;;;;0.79;84.29;99933.63;1808273;78;20964;-56
2020/12/11 02:22:45;;;;;;;24.23;10.00;;;;;;;0.79;84.25;99945.55;1778061;79;22162;-56
2020/12/11 02:25:12;;;;;;;20.20;10.00;;;;;;;0.79;84.24;99934.95;1778678;78;21175;-55
2020/12/11 02:27:39;;;;;;;21.67;10.27;;;;;;;0.77;84.24;99940.25;1788128;78;21206;-57
2020/12/11 02:30:06;;;;;;;18.80;9.60;;;;;;;0.78;84.29;99936.72;1780582;78;21163;-55
2020/12/11 02:32:34;;;;;;;22.87;10.40;;;;;;;0.80;84.26;99938.92;1788045;78;21218;-55
2020/12/11 02:35:01;;;;;;;18.70;11.23;;;;;;;0.83;84.27;99947.30;1810189;77;21740;-56
2020/12/11 02:37:29;;;;;;;19.50;10.13;;;;;;;0.84;84.25;99939.35;1776747;77;21207;-56
2020/12/11 02:39:56;;;;;;;16.00;9.40;;;;;;;0.84;84.16;99934.05;1817422;77;21179;-56
2020/12/11 02:42:23;;;;;;;20.87;10.63;;;;;;;0.83;84.12;99942.00;1812018;77;21977;-56
2020/12/11 02:44:51;;;;;;;16.80;9.10;;;;;;;0.82;84.04;99933.62;1789188;78;21210;-55
2020/12/11 02:47:18;;;;;;;15.87;8.30;;;;;;;0.80;84.04;99938.92;1768707;80;23525;-55
2020/12/11 02:49:45;;;;;;;17.13;9.23;;;;;;;0.79;84.05;99945.55;1786528;78;21732;-56
2020/12/11 02:52:12;;;;;;;18.97;9.17;;;;;;;0.80;84.08;99949.96;1790513;78;21783;-56
2020/12/11 02:54:40;;;;;;;25.33;11.17;;;;;;;0.81;84.03;99947.31;1789712;78;21213;-56
2020/12/11 02:57:07;;;;;;;18.27;9.40;;;;;;;0.81;84.06;99949.95;1792468;78;21177;-56
2020/12/11 02:59:34;;;;;;;26.10;10.30;;;;;;;0.82;84.03;99949.52;1816355;77;23518;-56
2020/12/11 03:02:01;;;;;;;24.70;9.80;;;;;;;0.81;83.97;99945.10;1812912;77;21213;-56
2020/12/11 03:04:28;;;;;;;17.27;7.63;;;;;;;0.81;83.92;99948.63;1810478;77;21062;-55
2020/12/11 03:06:56;;;;;;;16.00;8.40;;;;;;;0.81;83.93;99946.42;1814345;77;21199;-55
2020/12/11 03:09:23;;;;;;;16.67;8.87;;;;;;;0.81;83.92;99944.66;1777859;79;21175;-56
2020/12/11 03:11:50;;;;;;;16.90;8.43;;;;;;;0.82;83.92;99946.86;1779453;78;21553;-55
2020/12/11 03:14:18;;;;;;;20.17;9.43;;;;;;;0.83;83.93;99949.95;1790433;78;21115;-55
2020/12/11 03:16:45;;;;;;;26.17;11.33;;;;;;;0.81;83.89;99951.73;1785376;78;21601;-55
2020/12/11 03:19:12;;;;;;;21.53;9.80;;;;;;;0.79;83.90;99950.84;1785364;78;21194;-56
2020/12/11 03:21:39;;;;;;;17.60;9.93;;;;;;;0.73;83.90;99948.68;1783538;78;21600;-56
2020/12/11 03:24:06;;;;;;;21.80;9.23;;;;;;;0.74;83.89;99950.89;1815204;78;21155;-55
2020/12/11 03:26:33;;;;;;;18.33;9.33;;;;;;;0.72;83.88;99940.30;1788522;78;21659;-55
2020/12/11 03:29:01;;;;;;;12.97;6.13;;;;;;;0.71;83.95;99939.85;1811564;77;21234;-55
2020/12/11 03:31:28;;;;;;;15.50;7.27;;;;;;;0.73;83.93;99942.06;1812155;77;21309;-55
2020/12/11 03:33:55;;;;;;;17.87;9.70;;;;;;;0.75;83.92;99938.08;1819516;77;21537;-55
2020/12/11 03:36:22;;;;;;;18.80;10.83;;;;;;;0.75;83.90;99936.75;1788008;78;21213;-56
2020/12/11 03:38:50;;;;;;;17.10;9.17;;;;;;;0.75;83.86;99944.70;1775687;78;21249;-56
2020/12/11 03:41:17;;;;;;;16.77;8.10;;;;;;;0.74;83.83;99949.56;1772650;78;21163;-55
2020/12/11 03:43:45;;;;;;;19.90;8.13;;;;;;;0.74;83.79;99942.50;1775067;78;22739;-56
2020/12/11 03:46:20;;;;;;;14.63;7.53;;;;;;;0.74;83.78;99949.13;1777586;78;21154;-55
2020/12/11 03:48:49;;;;;;;17.73;8.43;;;;;;;0.73;83.79;99952.66;1778994;78;22043;-55
2020/12/11 03:51:18;;;;;;;22.60;8.63;;;;;;;0.74;83.80;99951.77;1774220;78;21194;-56
2020/12/11 03:53:46;;;;;;;15.30;8.60;;;;;;;0.77;83.79;99950.00;1752234;80;21533;-55
2020/12/11 03:56:14;;;;;;;18.20;8.70;;;;;;;0.77;83.75;99949.52;1750321;80;21767;-56
2020/12/11 03:58:42;;;;;;;20.13;10.37;;;;;;;0.74;83.71;99954.86;1752314;80;21108;-55
2020/12/11 04:01:13;;;;;;;14.20;7.47;;;;;;;0.73;83.70;99951.77;1758913;80;21364;-55
2020/12/11 04:03:41;;;;;;;15.70;8.60;;;;;;;0.73;83.69;99949.13;1755865;80;21199;-55
2020/12/11 04:06:14;;;;;;;15.93;8.00;;;;;;;0.73;83.66;99951.77;1746938;80;21163;-56
2020/12/11 04:08:42;;;;;;;15.20;8.17;;;;;;;0.73;83.68;99951.77;1774595;78;21382;-56
2020/12/11 04:11:11;;;;;;;17.13;9.67;;;;;;;0.73;83.68;99951.77;1754962;80;21768;-56
2020/12/11 04:13:39;;;;;;;21.33;9.47;;;;;;;0.72;83.67;99959.28;1755274;80;21792;-55
2020/12/11 04:16:07;;;;;;;16.73;8.93;;;;;;;0.71;83.63;99955.75;1745467;80;21206;-55
2020/12/11 04:18:34;;;;;;;20.73;9.77;;;;;;;0.69;83.57;99953.55;1753106;79;21624;-56
2020/12/11 04:21:01;;;;;;;20.70;8.63;;;;;;;0.68;83.56;99954.42;1751911;80;21214;-56
2020/12/11 04:23:28;;;;;;;15.33;8.07;;;;;;;0.66;83.58;99958.88;1746695;80;21613;-56
2020/12/11 04:25:56;;;;;;;15.63;8.70;;;;;;;0.67;83.64;99955.34;1749552;80;21522;-56
2020/12/11 04:28:23;;;;;;;17.20;8.07;;;;;;;0.68;83.56;99955.75;1751591;80;21220;-56
2020/12/11 04:30:50;;;;;;;16.63;8.80;;;;;;;0.65;83.53;99956.23;1752270;80;21604;-56
2020/12/11 04:33:18;;;;;;;16.53;8.23;;;;;;;0.62;83.52;99961.09;1752549;80;21847;-56
2020/12/11 04:35:45;;;;;;;16.47;9.03;;;;;;;0.61;83.50;99956.67;1755527;80;21240;-56
2020/12/11 04:38:12;;;;;;;13.37;6.93;;;;;;;0.61;83.48;99954.03;1763997;79;21628;-56
2020/12/11 04:40:39;;;;;;;18.00;7.33;;;;;;;0.63;83.48;99956.67;1781919;78;21837;-57
2020/12/11 04:43:09;;;;;;;13.40;8.03;;;;;;;0.63;83.45;99965.50;1774071;79;21432;-56
2020/12/11 04:45:38;;;;;;;18.43;8.77;;;;;;;0.63;83.38;99965.50;1776253;79;21098;-56
2020/12/11 04:48:09;;;;;;;18.43;8.30;;;;;;;0.60;83.38;99964.19;1776974;79;21593;-56
2020/12/11 04:50:37;;;;;;;19.20;7.90;;;;;;;0.59;83.34;99973.05;1778612;79;21214;-57
2020/12/11 04:53:04;;;;;;;17.47;8.17;;;;;;;0.58;83.27;99981.00;1764325;78;21898;-55
2020/12/11 04:55:37;;;;;;;12.23;6.67;;;;;;;0.57;83.20;99980.12;1783207;79;21178;-55
2020/12/11 04:58:05;;;;;;;15.40;7.37;;;;;;;0.56;83.24;99982.32;1810896;77;21822;-57
2020/12/11 05:00:32;;;;;;;24.57;8.67;;;;;;;0.58;83.26;99984.53;1811506;77;21086;-56
2020/12/11 05:03:00;;;;;;;16.23;7.57;;;;;;;0.60;83.25;99987.14;1783704;78;21633;-55
2020/12/11 05:05:27;;;;;;;21.50;8.63;;;;;;;0.59;83.19;99991.59;1811441;77;21186;-55
2020/12/11 05:07:54;;;;;;;14.00;7.47;;;;;;;0.59;83.12;99982.77;1811348;77;21450;-54
2020/12/11 05:10:21;;;;;;;13.93;6.93;;;;;;;0.57;83.05;99994.68;1769790;79;21182;-54
2020/12/11 05:12:48;;;;;;;14.47;6.93;;;;;;;0.56;83.00;99984.97;1788101;78;21221;-55
2020/12/11 05:15:18;;;;;;;15.23;7.07;;;;;;;0.54;83.00;99989.39;1786998;78;21422;-55
2020/12/11 05:17:45;;;;;;;14.93;7.20;;;;;;;0.52;82.99;99976.58;1788637;78;21225;-55
2020/12/11 05:20:12;;;;;;;13.50;7.53;;;;;;;0.52;82.99;99988.95;1815090;77;21166;-55
2020/12/11 05:22:40;;;;;;;16.90;7.90;;;;;;;0.49;82.93;99985.89;1787824;78;21616;-56
2020/12/11 05:25:15;;;;;;;14.50;7.60;;;;;;;0.48;82.84;99985.89;1809422;78;21171;-56
2020/12/11 05:27:46;;;;;;;17.87;6.43;;;;;;;0.44;82.76;99982.80;1809715;77;21252;-57
2020/12/11 05:30:19;;;;;;;13.10;6.07;;;;;;;0.42;82.77;99984.59;1780357;79;21227;-56
2020/12/11 05:32:50;;;;;;;16.83;6.93;;;;;;;0.38;82.76;99989.89;1778329;79;21147;-55
2020/12/11 05:35:23;;;;;;;11.53;6.80;;;;;;;0.37;82.80;99995.19;1779322;79;21190;-54
2020/12/11 05:37:57;;;;;;;15.63;7.97;;;;;;;0.36;82.72;99997.39;1778246;79;21115;-56
2020/12/11 05:40:37;;;;;;;;;;;;;;;0.33;82.64;99992.13;1779467;79;21323;-56
2020/12/11 05:43:15;;;;;;;14.83;6.43;;;;;;;0.31;82.65;99990.81;1794714;78;20478;-56
2020/12/11 05:45:54;;;;;;;13.67;6.27;;;;;;;0.30;82.71;99998.30;1793926;78;21154;-56
2020/12/11 05:48:35;;;;;;;7.53;5.37;;;;;;;0.31;82.59;99993.45;1769883;79;21980;-55
2020/12/11 05:51:14;;;;;;;11.20;5.67;;;;;;;0.29;82.43;99997.87;1761310;80;21549;-56
2020/12/11 05:53:42;;;;;;;15.50;7.23;;;;;;;0.26;82.39;99997.86;1758647;80;21660;-57
2020/12/11 05:56:09;;;;;;;15.63;7.07;;;;;;;0.24;82.40;99996.13;1760526;80;21286;-55
2020/12/11 05:58:37;;;;;;;16.87;7.67;;;;;;;0.23;82.35;100002.30;1760920;79;22326;-55
2020/12/11 06:01:04;;;;;;;13.40;6.00;;;;;;;0.19;82.41;100004.51;1757803;79;21198;-56
2020/12/11 06:03:31;;;;;;;18.67;8.07;;;;;;;0.16;82.41;100003.21;1761276;79;21190;-56
2020/12/11 06:05:59;;;;;;;17.93;9.13;;;;;;;0.13;82.42;100005.41;1760282;79;21668;-56
2020/12/11 06:08:27;;;;;;;16.40;8.13;;;;;;;0.12;82.42;100009.38;1759351;80;21180;-57
2020/12/11 06:10:54;;;;;;;17.43;7.00;;;;;;;0.11;82.30;100003.20;1796336;78;21578;-57
2020/12/11 06:13:43;;;;;;;14.47;7.43;;;;;;;0.08;82.28;100003.23;1796398;78;21177;-55
2020/12/11 06:16:10;;;;;;;15.87;8.70;;;;;;;0.07;82.22;100005.88;1795966;78;21175;-55
2020/12/11 06:18:38;;;;;;;17.87;8.23;;;;;;;0.04;82.14;100002.78;1798835;78;22161;-57
2020/12/11 06:21:05;;;;;;;16.00;7.37;;;;;;;0.03;82.02;100008.95;1798165;78;21207;-55
2020/12/11 06:23:32;;;;;;;17.70;8.30;;;;;;;0.01;81.92;100008.07;1753597;81;22427;-57
2020/12/11 06:26:01;;;;;;;15.87;8.30;;;;;;;-0.01;81.82;100009.86;1758362;80;21191;-55
2020/12/11 06:28:45;;;;;;;19.97;7.83;;;;;;;-0.05;81.87;100006.77;1751759;80;21581;-55
2020/12/11 06:31:17;;;;;;;16.77;7.30;;;;;;;-0.05;81.77;100006.77;1748973;79;21914;-56
2020/12/11 06:33:52;;;;;;;13.63;7.50;;;;;;;-0.08;81.72;100012.05;1757406;80;21175;-56
2020/12/11 06:36:19;;;;;;;15.73;7.53;;;;;;;-0.12;81.68;100013.84;1748534;80;21194;-56
2020/12/11 06:38:55;;;;;;;15.07;7.90;;;;;;;-0.15;81.70;100016.91;1752369;80;21893;-56
2020/12/11 06:41:34;;;;;;;15.23;7.93;;;;;;;-0.17;81.67;100008.97;1765534;79;21267;-55
2020/12/11 06:44:18;;;;;;;16.67;7.07;;;;;;;-0.20;81.46;100019.58;1781213;78;22256;-56
2020/12/11 06:47:05;;;;;;;16.62;7.10;;;;;;;-0.23;81.55;100015.61;1779872;79;21214;-57
2020/12/11 06:49:35;;;;;;;19.70;7.67;;;;;;;-0.26;81.46;100010.78;1778301;79;21004;-57
2020/12/11 06:52:09;;;;;;;19.33;7.53;;;;;;;-0.28;81.15;100005.92;1813342;77;21068;-55
2020/12/11 06:54:42;;;;;;;17.80;8.28;;;;;;;-0.35;81.12;99998.44;1777115;78;22072;-57
2020/12/11 06:57:09;;;;;;;17.03;7.37;;;;;;;-0.40;81.11;100001.06;1771416;78;21626;-56
2020/12/11 06:59:37;;;;;;;16.07;7.73;;;;;;;-0.43;81.26;100000.20;1776648;79;21183;-56
2020/12/11 07:02:15;;;;;;;15.33;6.67;;;;;;;-0.42;81.27;100001.94;1778959;79;21187;-57
2020/12/11 07:04:48;;;;;;;13.60;7.67;;;;;;;-0.43;81.21;100004.17;1782047;79;21647;-57
2020/12/11 07:07:15;;;;;;;14.80;7.27;;;;;;;-0.45;81.14;99991.38;1778493;79;22260;-56
2020/12/11 07:09:44;;;;;;;16.97;8.17;;;;;;;-0.47;81.15;99993.14;1766947;79;21810;-57
2020/12/11 07:12:14;;;;;;;16.23;7.33;;;;;;;-0.46;81.10;99998.88;1780776;79;21142;-56
2020/12/11 07:14:44;;;;;;;13.60;7.40;;;;;;;-0.44;81.18;99990.50;1782608;79;21830;-56
2020/12/11 07:17:27;;;;;;;16.73;6.67;;;;;;;-0.42;81.03;99996.21;1784654;79;21182;-57
2020/12/11 07:19:56;;;;;;;15.80;6.93;;;;;;;-0.43;80.89;99990.95;1778574;79;21080;-57
2020/12/11 07:22:24;;;;;;;15.13;6.83;;;;;;;-0.47;80.67;99990.49;1781146;79;21363;-56
2020/12/11 07:24:51;;;;;;;13.40;6.17;;;;;;;-0.51;80.62;99990.07;1781998;79;21206;-56
2020/12/11 07:27:18;;;;;;;17.97;8.23;;;;;;;-0.53;80.54;99987.86;1775017;79;21575;-57
2020/12/11 07:29:50;;;;;;;18.20;6.80;;;;;;;-0.60;80.59;99980.81;1778636;79;21167;-57
2020/12/11 07:32:21;;;;;;;14.60;7.83;;;;;;;-0.64;80.71;99990.93;1783440;79;21099;-58
2020/12/11 07:34:49;;;;;;;12.97;7.07;;;;;;;-0.64;80.72;99988.28;1774778;79;21746;-56
2020/12/11 07:37:16;;;;;;;19.40;6.87;;;;;;;-0.66;80.62;99985.63;1777720;79;21132;-57
2020/12/11 07:39:43;;;;;;;19.70;7.43;;;;;;;-0.69;80.44;99988.30;1780954;79;21608;-57
2020/12/11 07:42:10;;;;;;;11.93;6.97;;;;;;;-0.72;80.31;99982.11;1771172;79;21190;-57
2020/12/11 07:44:39;;;;;;;16.90;7.47;;;;;;;-0.75;80.36;99984.30;1757880;79;21198;-60
2020/12/11 07:47:12;;;;;;;17.57;7.30;;;;;;;-0.77;80.40;99989.58;1757618;79;22421;-57
2020/12/11 07:49:45;;;;;;;14.70;6.42;;;;;;;-0.77;80.30;99990.91;1758685;79;21211;-57
2020/12/11 07:52:22;;;;;;;16.30;6.90;;;;;;;-0.80;80.29;99988.28;1756443;79;21623;-58
2020/12/11 07:54:45;;;;;;;13.93;6.03;;;;;;;-0.81;80.21;99987.84;1758887;79;21177;-56
2020/12/11 07:57:17;;;;;;;15.40;8.03;;;;;;;-0.83;80.14;99983.42;1763840;79;21166;-57
2020/12/11 08:00:01;;;;;;;12.87;5.90;;;;;;;-0.87;79.88;99990.92;1760136;79;22890;-59
2020/12/11 08:02:32;;;;;;;15.20;6.23;;;;;;;-0.92;79.61;99989.57;1761337;79;21174;-57
2020/12/11 08:04:59;;;;;;;19.53;7.10;;;;;;;-0.98;79.67;99983.41;1755826;79;21138;-58
2020/12/11 08:07:29;;;;;;;14.47;6.60;;;;;;;-1.00;79.81;99984.72;1756684;79;21605;-55
2020/12/11 08:10:10;;;;;;;17.13;5.77;;;;;;;-0.97;79.89;99987.81;1759591;79;21170;-58
2020/12/11 08:12:39;;;;;;;21.87;8.60;;;;;;;-0.94;79.92;99986.07;1760317;79;21397;-58
2020/12/11 08:15:07;;;;;;;14.83;6.63;;;;;;;-0.92;79.50;99991.33;1755866;79;21822;-57
2020/12/11 08:17:34;;;;;;;15.10;6.27;;;;;;;-0.96;79.36;99993.55;1758359;79;21166;-57
2020/12/11 08:20:04;;;;;;;17.77;6.70;;;;;;;-1.00;79.46;99993.08;1751409;79;21190;-58
2020/12/11 08:22:38;;;;;;;17.83;8.40;;;;;;;-1.00;79.33;99987.80;1757877;79;21194;-57
2020/12/11 08:25:20;;;;;;;18.80;7.03;;;;;;;-1.04;79.20;99993.97;1756211;79;21396;-57
2020/12/11 08:27:47;;;;;;;13.17;6.63;;;;;;;-1.08;79.16;100000.99;1759319;79;21157;-58
2020/12/11 08:30:16;;;;;;;18.83;7.90;;;;;;;-1.09;79.25;100000.55;1752954;79;21201;-56
2020/12/11 08:32:44;;;;;;;16.10;8.10;;;;;;;-1.12;79.13;100005.84;1792076;78;21612;-55
2020/12/11 08:35:16;;;;;;;13.93;7.60;;;;;;;-1.13;79.14;100005.39;1785190;78;21712;-57
2020/12/11 08:37:56;;;;;;;17.30;7.20;;;;;;;-1.16;79.17;99994.37;1752116;80;21641;-54
2020/12/11 08:40:57;;;;;;;16.90;6.93;;;;;;;-1.17;79.15;99997.00;1756144;79;21139;-56
2020/12/11 08:43:33;;;;;;;21.80;8.50;;;;;;;-1.19;79.20;99993.47;1693604;83;21529;-55
2020/12/11 08:46:16;;;;;;;17.40;8.20;;;;;;;-1.21;79.31;99991.28;1683387;83;21269;-52
2020/12/11 08:51:31;;;;;;;18.77;12.00;;;;;;;-1.15;79.25;99986.89;1850490;75;28476;-54
2020/12/11 08:54:01;;;;;;;16.20;9.77;;;;;;;-1.13;79.23;99982.94;1839283;76;21455;-54
2020/12/11 08:56:29;;;;;;;16.50;9.77;;;;;;;-1.05;79.13;99989.56;1777263;78;21640;-54
2020/12/11 08:58:57;;;;;;;19.27;9.57;;;;;;;-1.04;79.14;99988.69;1801195;78;21234;-57
2020/12/11 09:01:24;;;;;;;19.67;9.00;;;;;;;-1.03;78.99;99975.92;1800122;78;21186;-55
2020/12/11 09:03:53;;;;;;;14.53;8.27;;;;;;;-1.08;78.83;99974.57;1781072;78;21053;-53
2020/12/11 09:06:20;;;;;;;18.13;9.70;;;;;;;-1.09;79.05;99975.89;1799342;78;21038;-52
2020/12/11 09:08:49;;;;;;;15.10;8.70;;;;;;;-1.09;79.02;99972.80;1772970;79;21068;-54
2020/12/11 09:11:16;;;;;;;20.37;9.07;;;;;;;-1.09;79.02;99980.73;1768771;79;21202;-50
2020/12/11 09:14:51;;;;;;;19.70;9.37;;;;;;;-1.08;78.99;99975.89;1822266;75;26900;-55
2020/12/11 09:17:18;;;;;;;23.57;10.97;;;;;;;-1.13;78.90;99973.70;1793439;77;21700;-54
2020/12/11 09:19:46;;;;;;;16.93;8.37;;;;;;;-1.12;78.92;99960.94;1797201;77;21421;-52
2020/12/11 09:22:13;;;;;;;15.20;8.67;;;;;;;-1.08;79.07;99968.41;1791829;77;21075;-54
2020/12/11 09:24:41;;;;;;;19.57;9.83;;;;;;;-1.05;79.08;99963.14;1791007;77;21145;-53
2020/12/11 09:27:11;;;;;;;17.83;8.20;;;;;;;-1.05;78.74;99973.27;1790457;77;21553;-53
2020/12/11 09:29:40;;;;;;;16.63;7.47;;;;;;;-1.08;78.63;99965.77;1793582;77;21202;-57
2020/12/11 09:32:07;;;;;;;18.33;8.77;;;;;;;-1.09;78.60;99967.96;1794532;77;22076;-56
2020/12/11 09:34:35;;;;;;;21.63;10.10;;;;;;;-1.12;78.48;99954.33;1793813;77;21533;-53
2020/12/11 09:37:03;;;;;;;15.47;8.50;;;;;;;-1.12;78.60;99957.41;1794191;77;21056;-52
2020/12/11 09:39:30;;;;;;;20.37;9.60;;;;;;;-1.11;78.55;99961.38;1742111;80;21644;-53
2020/12/11 09:42:08;;;;;;;21.80;9.67;;;;;;;-1.11;78.60;99954.78;1758272;79;21930;-56
2020/12/11 09:47:33;;;;;;;17.77;9.23;;;;;;;-1.06;78.26;99947.73;1744816;79;21600;-51
2020/12/11 09:55:11;;;;;;;18.43;10.30;;;;;;;-1.18;78.01;99943.73;1867075;74;27328;-53
2020/12/11 09:57:38;;;;;;;24.03;10.50;;;;;;;-1.23;78.24;99948.13;1836939;75;21159;-51
2020/12/11 10:00:06;;;;;;;21.83;9.73;;;;;;;-1.21;78.13;99940.67;1837445;75;21528;-51
2020/12/11 10:05:21;;;;;;;22.90;10.53;;;;;;;-1.22;78.16;99941.98;1838334;75;21195;-52
2020/12/11 10:07:49;;;;;;;16.87;10.23;;;;;;;-1.21;78.20;99923.94;1772868;78;21194;-52
2020/12/11 10:10:18;;;;;;;20.73;9.90;;;;;;;-1.20;78.17;99917.78;1759410;80;21030;-51
2020/12/11 10:12:45;;;;;;;19.40;10.53;;;;;;;-1.18;78.23;99923.92;1758296;80;21366;-51
2020/12/11 10:15:15;;;;;;;18.20;9.70;;;;;;;-1.16;78.14;99923.48;1779086;78;21044;-55
2020/12/11 10:17:42;;;;;;;20.63;9.87;;;;;;;-1.20;77.90;99935.83;1764204;79;21044;-55
2020/12/11 10:20:09;;;;;;;23.03;10.03;;;;;;;-1.21;77.98;99933.18;1762443;80;21601;-52
2020/12/11 10:22:37;;;;;;;17.10;10.20;;;;;;;-1.22;77.93;99930.98;1758088;80;21487;-52
2020/12/11 10:25:06;;;;;;;23.00;10.90;;;;;;;-1.22;77.79;99931.41;1791997;78;21212;-55
2020/12/11 10:27:33;;;;;;;18.07;9.80;;;;;;;-1.25;77.70;99926.11;1791823;78;21190;-50
2020/12/11 10:30:02;;;;;;;17.57;9.40;;;;;;;-1.28;77.87;99922.16;1773303;78;21187;-53
2020/12/11 10:32:30;;;;;;;22.37;9.80;;;;;;;-1.32;77.73;99917.30;1768783;79;21184;-50
2020/12/11 10:34:57;;;;;;;23.83;10.73;;;;;;;-1.34;77.82;99913.77;1772180;79;21664;-53
2020/12/11 10:37:24;;;;;;;17.60;9.47;;;;;;;-1.38;77.55;99906.73;1767740;79;21252;-52
2020/12/11 10:39:51;;;;;;;18.70;10.40;;;;;;;-1.44;77.47;99908.02;1766431;79;21178;-51
2020/12/11 10:42:18;;;;;;;17.20;10.63;;;;;;;-1.47;77.65;99912.00;1771384;79;21171;-51
2020/12/11 10:44:46;;;;;;;16.07;8.40;;;;;;;-1.50;77.67;99904.49;1767737;79;21608;-49
2020/12/11 10:47:14;;;;;;;20.43;10.40;;;;;;;-1.52;77.75;99905.80;1768218;79;21190;-51
2020/12/11 10:49:41;;;;;;;29.47;11.93;;;;;;;-1.52;77.73;99913.72;1767181;79;21664;-52
2020/12/11 10:52:08;;;;;;;18.47;8.67;;;;;;;-1.52;77.85;99908.01;1767120;79;21218;-52
2020/12/11 10:54:36;;;;;;;19.33;10.10;;;;;;;-1.49;77.84;99911.10;1766471;79;21206;-52
2020/12/11 10:57:03;;;;;;;21.43;10.07;;;;;;;-1.46;77.92;99916.84;1769579;80;21484;-52
2020/12/11 10:59:30;;;;;;;21.17;10.50;;;;;;;-1.45;78.02;99910.25;1769481;80;21183;-53
2020/12/11 11:01:57;;;;;;;19.13;10.03;;;;;;;-1.43;78.06;99902.30;1765629;80;21358;-50
2020/12/11 11:04:24;;;;;;;17.10;9.23;;;;;;;-1.40;78.04;99908.48;1768370;80;21612;-55
2020/12/11 11:06:56;;;;;;;19.70;9.40;;;;;;;-1.40;77.81;99900.56;1768110;80;21232;-53
2020/12/11 11:12:01;;;;;;;17.07;9.23;;;;;;;-1.42;78.01;99893.51;1770734;80;21218;-51
2020/12/11 11:14:47;;;;;;;;;;;;;;;-1.41;77.88;99897.92;1751276;80;22605;-53
2020/12/11 11:19:35;;;;;;;22.00;9.33;;;;;;;-1.57;77.62;99905.80;1743098;80;21172;-53
2020/12/11 11:29:59;;;;;;;17.53;9.67;;;;;;;-1.63;77.88;99895.67;1865578;75;26906;-52
2020/12/11 11:32:27;;;;;;;17.93;10.57;;;;;;;-1.67;78.03;99907.97;1844109;76;21192;-52
2020/12/11 11:34:54;;;;;;;21.10;11.13;;;;;;;-1.68;78.02;99899.61;1848261;76;21377;-50
2020/12/11 11:37:24;;;;;;;22.23;11.47;;;;;;;-1.70;77.98;99892.11;1844747;76;21959;-52
2020/12/11 11:39:51;;;;;;;21.77;11.20;;;;;;;-1.71;78.09;99897.41;1845510;76;21363;-49
2020/12/11 11:42:18;;;;;;;22.10;11.57;;;;;;;-1.71;78.13;99895.66;1845450;76;21155;-52
2020/12/11 11:44:52;;;;;;;21.03;10.77;;;;;;;-1.70;78.19;99900.50;1842418;76;21194;-51
2020/12/11 11:47:15;;;;;;;21.77;12.27;;;;;;;-1.70;78.16;99892.11;1835777;76;21210;-53
2020/12/11 11:50:11;;;;;;;20.47;10.00;;;;;;;-1.72;78.06;99900.92;1841237;76;22172;-50
2020/12/11 11:52:34;;;;;;;19.03;9.87;;;;;;;-1.75;78.11;99900.91;1837824;76;21433;-50
2020/12/11 11:54:58;;;;;;;19.13;9.63;;;;;;;-1.80;77.96;99891.67;1846280;76;21368;-48
2020/12/11 11:57:26;;;;;;;22.77;11.53;;;;;;;-1.83;78.03;99892.96;1845988;76;21168;-50
2020/12/11 11:59:53;;;;;;;16.40;9.60;;;;;;;-1.84;78.01;99902.19;1846479;76;21393;-50
2020/12/11 12:02:21;;;;;;;15.63;9.07;;;;;;;-1.86;77.88;99891.62;1843260;76;21489;-52
2020/12/11 12:04:49;;;;;;;18.57;9.63;;;;;;;-1.89;77.91;99894.70;1844455;75;21185;-51
2020/12/11 12:07:16;;;;;;;24.13;11.80;;;;;;;-1.91;77.97;99903.48;1845818;76;21147;-49